Time;durP1;ratioP1;P1;durP2;ratioP2;P2;SDS_P1;SDS_P2;PMS_P1;PMS_P2;Temp;Humidity;BMP_temperature;BMP_pressure;BME280_temperature;BME280_humidity;BME280_pressure;Samples;Min_cycle;Max_cycle;Signal;HPM_P1;HPM_P2
2023/04/02 00:00:20;;;;;;;13.88;9.25;;;;;;;5.51;100.00;100965.66;5059615;28;20768;-61
2023/04/02 00:02:56;;;;;;;14.52;8.50;;;;;;;5.46;100.00;100970.22;5060529;28;20458;-59
2023/04/02 00:05:49;;;;;;;13.93;9.38;;;;;;;5.40;100.00;100984.34;5061354;28;20044;-60
2023/04/02 00:08:28;;;;;;;12.80;9.30;;;;;;;5.31;100.00;100976.06;5060444;28;20045;-59
2023/04/02 00:11:01;;;;;;;13.68;8.80;;;;;;;5.30;100.00;100972.59;5064590;28;20059;-59
2023/04/02 00:13:33;;;;;;;12.30;8.30;;;;;;;5.35;100.00;100988.91;5059323;28;20045;-60
2023/04/02 00:16:03;;;;;;;10.48;7.07;;;;;;;5.29;100.00;100986.56;5059681;28;20052;-57
2023/04/02 00:18:34;;;;;;;11.18;7.20;;;;;;;5.31;100.00;100992.56;5060605;28;20048;-59
2023/04/02 00:21:12;;;;;;;12.32;7.75;;;;;;;5.32;100.00;101009.06;5055590;28;20053;-60
2023/04/02 00:23:43;;;;;;;11.23;7.10;;;;;;;5.27;100.00;101008.41;5061002;28;20416;-60
2023/04/02 00:26:29;;;;;;;11.18;7.43;;;;;;;5.29;100.00;101017.00;5058917;28;20495;-60
2023/04/02 00:29:01;;;;;;;9.25;6.55;;;;;;;5.27;100.00;101013.63;5055855;28;20123;-60
2023/04/02 00:31:32;;;;;;;10.40;6.77;;;;;;;5.25;100.00;101022.34;5061134;28;20044;-59
2023/04/02 00:34:03;;;;;;;9.85;6.13;;;;;;;5.27;100.00;101040.53;5063142;28;20178;-60
2023/04/02 00:36:34;;;;;;;10.23;5.97;;;;;;;5.22;100.00;101035.50;5057016;28;20502;-60
2023/04/02 00:39:13;;;;;;;10.65;6.57;;;;;;;5.19;100.00;101030.41;5061281;28;20059;-60
2023/04/02 00:41:45;;;;;;;9.00;5.80;;;;;;;5.20;100.00;101033.88;5051837;28;20045;-59
2023/04/02 00:44:20;;;;;;;7.90;5.13;;;;;;;5.21;100.00;101039.03;5061536;28;20068;-59
2023/04/02 00:46:50;;;;;;;9.50;5.43;;;;;;;5.17;100.00;101045.28;5054047;28;20045;-59
2023/04/02 00:49:29;;;;;;;10.25;5.95;;;;;;;5.23;100.00;101042.41;5059555;28;21918;-60
2023/04/02 00:52:02;;;;;;;10.93;5.90;;;;;;;5.20;100.00;101044.31;5063478;28;20079;-59
2023/04/02 00:54:32;;;;;;;10.60;5.72;;;;;;;5.20;100.00;101041.69;5065240;28;20396;-60
2023/04/02 00:57:01;;;;;;;10.45;6.32;;;;;;;5.18;100.00;101056.53;5058883;28;20098;-60
2023/04/02 00:59:31;;;;;;;9.90;6.40;;;;;;;5.22;100.00;101068.53;5060380;28;20091;-59
2023/04/02 01:02:21;;;;;;;9.00;6.30;;;;;;;5.21;100.00;101059.03;5063688;28;20044;-60
2023/04/02 01:04:53;;;;;;;12.05;7.68;;;;;;;5.14;100.00;101074.06;5060210;28;20075;-59
2023/04/02 01:07:34;;;;;;;10.32;7.28;;;;;;;5.16;100.00;101087.06;5060623;28;20075;-60
2023/04/02 01:10:18;;;;;;;10.82;7.55;;;;;;;5.13;100.00;101093.22;5061309;28;20122;-59
2023/04/02 01:12:57;;;;;;;9.60;6.80;;;;;;;5.16;100.00;101090.50;5059235;28;20051;-60
2023/04/02 01:15:31;;;;;;;10.45;7.55;;;;;;;5.14;100.00;101094.94;5059874;28;20447;-60
2023/04/02 01:18:17;;;;;;;10.27;7.10;;;;;;;5.05;100.00;101103.94;5060438;28;20438;-60
2023/04/02 01:21:16;;;;;;;10.45;7.32;;;;;;;5.08;100.00;101100.38;5056170;28;20049;-60
2023/04/02 01:23:58;;;;;;;13.70;7.55;;;;;;;5.16;100.00;101102.69;5059622;28;20594;-60
2023/04/02 01:26:46;;;;;;;11.95;7.07;;;;;;;5.16;100.00;101107.91;5060935;28;20056;-60
2023/04/02 01:29:19;;;;;;;11.98;7.35;;;;;;;5.15;100.00;101107.03;5061770;28;20049;-60
2023/04/02 01:31:49;;;;;;;12.98;7.43;;;;;;;5.13;100.00;101111.47;5061972;28;20049;-59
2023/04/02 01:34:19;;;;;;;10.90;7.22;;;;;;;5.10;100.00;101122.03;5057982;28;20042;-59
2023/04/02 01:37:01;;;;;;;11.38;6.78;;;;;;;5.07;100.00;101130.81;5059094;28;20519;-59
2023/04/02 01:39:40;;;;;;;9.38;6.22;;;;;;;5.01;100.00;101144.06;5064174;28;20082;-60
2023/04/02 01:42:15;;;;;;;9.98;6.30;;;;;;;4.99;100.00;101143.28;5064849;28;20045;-60
2023/04/02 01:44:49;;;;;;;11.23;6.72;;;;;;;4.93;100.00;101153.94;5060721;28;20040;-60
2023/04/02 01:47:19;;;;;;;9.93;7.15;;;;;;;4.91;100.00;101156.59;5057224;28;20106;-59
2023/04/02 01:49:48;;;;;;;12.23;7.22;;;;;;;4.90;100.00;101157.50;5057726;28;20044;-60
2023/04/02 01:52:19;;;;;;;13.32;7.80;;;;;;;4.90;100.00;101167.91;5059997;28;20044;-60
2023/04/02 01:54:48;;;;;;;10.57;7.22;;;;;;;4.86;100.00;101170.69;5059363;28;20074;-59
2023/04/02 01:57:16;;;;;;;12.45;7.07;;;;;;;4.85;100.00;101182.03;5060675;28;20097;-59
2023/04/02 01:59:46;;;;;;;11.30;7.35;;;;;;;4.79;100.00;101177.88;5062905;28;20074;-60
2023/04/02 02:02:18;;;;;;;11.00;6.82;;;;;;;4.85;100.00;101182.03;5067231;28;20053;-60
2023/04/02 02:04:46;;;;;;;13.68;7.50;;;;;;;4.84;100.00;101189.00;5062964;28;20059;-60
2023/04/02 02:07:16;;;;;;;10.02;6.15;;;;;;;4.80;100.00;101192.63;5063641;28;20048;-60
2023/04/02 02:09:45;;;;;;;10.80;6.38;;;;;;;4.79;100.00;101193.53;5061465;28;20049;-59
2023/04/02 02:12:15;;;;;;;10.93;6.80;;;;;;;4.80;100.00;101191.75;5057410;28;20052;-60
2023/04/02 02:14:48;;;;;;;9.40;6.28;;;;;;;4.76;100.00;101206.66;5059094;28;20115;-59
2023/04/02 02:17:20;;;;;;;11.88;7.82;;;;;;;4.71;100.00;101206.81;5056607;28;20052;-59
2023/04/02 02:19:52;;;;;;;11.07;7.97;;;;;;;4.74;100.00;101211.94;5063190;28;20541;-59
2023/04/02 02:22:27;;;;;;;12.73;7.90;;;;;;;4.74;100.00;101211.06;5059159;28;20041;-60
2023/04/02 02:24:57;;;;;;;13.25;8.57;;;;;;;4.76;100.00;101222.31;5058884;28;20049;-59
2023/04/02 02:27:49;;;;;;;12.02;7.80;;;;;;;4.73;100.00;101232.81;5058358;28;20102;-59
2023/04/02 02:30:22;;;;;;;10.07;6.83;;;;;;;4.71;100.00;101232.03;5057972;28;20052;-59
2023/04/02 02:32:56;;;;;;;14.02;8.38;;;;;;;4.69;100.00;101226.88;5058451;28;20040;-59
2023/04/02 02:35:30;;;;;;;14.23;8.18;;;;;;;4.68;100.00;101240.81;5067568;28;20102;-60
2023/04/02 02:38:11;;;;;;;10.57;7.38;;;;;;;4.67;100.00;101248.69;5074987;28;20105;-60
2023/04/02 02:40:45;;;;;;;13.40;8.43;;;;;;;4.65;100.00;101246.13;5074988;28;20044;-59
2023/04/02 02:43:15;;;;;;;13.98;8.32;;;;;;;4.69;100.00;101249.47;5074662;28;20079;-59
2023/04/02 02:45:47;;;;;;;11.85;8.23;;;;;;;4.64;100.00;101265.25;5074855;28;20098;-59
2023/04/02 02:48:19;;;;;;;12.82;7.65;;;;;;;4.63;100.00;101260.09;5057283;28;20049;-59
2023/04/02 02:50:47;;;;;;;13.48;7.20;;;;;;;4.62;100.00;101261.00;5055016;28;20041;-59
2023/04/02 02:53:19;;;;;;;12.75;6.82;;;;;;;4.53;100.00;101263.00;5059715;28;20414;-59
2023/04/02 02:55:50;;;;;;;13.10;6.53;;;;;;;4.49;100.00;101281.41;5074491;28;20118;-59
2023/04/02 02:58:25;;;;;;;11.35;6.10;;;;;;;4.48;100.00;101285.75;5074654;28;20048;-60
2023/04/02 03:00:55;;;;;;;10.25;5.90;;;;;;;4.45;100.00;101285.84;5073423;28;20052;-60
2023/04/02 03:03:27;;;;;;;9.68;5.95;;;;;;;4.50;100.00;101289.16;5060708;28;20052;-59
2023/04/02 03:06:01;;;;;;;10.80;6.35;;;;;;;4.46;100.00;101300.59;5064284;28;20056;-60
2023/04/02 03:08:33;;;;;;;9.90;4.85;;;;;;;4.30;100.00;101310.63;5054804;28;20091;-60
2023/04/02 03:11:05;;;;;;;;;;;;;;;4.20;100.00;101323.09;5064308;28;20041;-59
2023/04/02 03:13:35;;;;;;;7.93;4.18;;;;;;;4.23;100.00;101314.34;5067305;28;20402;-59
2023/04/02 03:16:11;;;;;;;9.80;5.15;;;;;;;4.16;100.00;101324.09;5061151;28;20066;-59
2023/04/02 03:18:46;;;;;;;8.82;4.82;;;;;;;4.12;100.00;101319.88;5062643;28;20127;-60
2023/04/02 03:21:22;;;;;;;8.57;4.50;;;;;;;4.10;100.00;101324.25;5060988;28;20047;-59
2023/04/02 03:23:55;;;;;;;7.95;4.80;;;;;;;4.09;100.00;101327.78;5063914;28;20094;-59
2023/04/02 03:26:30;;;;;;;8.30;4.70;;;;;;;4.11;100.00;101339.00;5064976;28;20139;-59
2023/04/02 03:29:02;;;;;;;9.43;4.88;;;;;;;4.12;100.00;101337.22;5057598;28;20048;-59
2023/04/02 03:31:37;;;;;;;9.15;5.35;;;;;;;4.14;100.00;101344.09;5061783;28;20113;-59
2023/04/02 03:34:13;;;;;;;8.20;4.40;;;;;;;4.17;100.00;101348.34;5060101;28;20071;-60
2023/04/02 03:36:48;;;;;;;9.75;5.53;;;;;;;4.09;100.00;101356.41;5061101;28;20121;-59
2023/04/02 03:39:22;;;;;;;10.38;5.15;;;;;;;4.10;100.00;101358.09;5061376;28;20068;-59
2023/04/02 03:41:55;;;;;;;8.73;5.43;;;;;;;4.06;100.00;101361.69;5063328;28;20040;-59
2023/04/02 03:44:27;;;;;;;10.15;5.43;;;;;;;4.09;100.00;101364.22;5062261;28;20500;-60
2023/04/02 03:47:01;;;;;;;10.48;5.72;;;;;;;4.12;100.00;101366.75;5057629;28;20052;-60
2023/04/02 03:49:34;;;;;;;10.13;5.63;;;;;;;4.09;100.00;101376.38;5056446;28;20545;-60
2023/04/02 03:52:06;;;;;;;9.85;5.85;;;;;;;4.04;100.00;101377.38;5060109;28;20040;-60
2023/04/02 03:54:34;;;;;;;10.13;5.78;;;;;;;4.06;100.00;101387.72;5060381;28;20046;-60
2023/04/02 03:57:03;;;;;;;9.68;5.97;;;;;;;4.07;100.00;101394.66;5065593;28;20540;-60
2023/04/02 03:59:39;;;;;;;11.05;6.82;;;;;;;4.06;100.00;101405.94;5062634;28;20515;-60
2023/04/02 04:02:26;;;;;;;14.15;8.00;;;;;;;4.05;100.00;101420.72;5055806;28;20072;-59
2023/04/02 04:04:56;;;;;;;12.45;7.85;;;;;;;4.00;100.00;101417.41;5056659;28;20072;-60
2023/04/02 04:07:31;;;;;;;12.63;8.00;;;;;;;3.99;100.00;101423.50;5056148;28;20098;-60
2023/04/02 04:10:00;;;;;;;16.17;9.27;;;;;;;3.97;100.00;101432.25;5054743;28;20053;-60
2023/04/02 04:12:32;;;;;;;12.40;8.10;;;;;;;3.95;100.00;101434.88;5060273;28;20430;-59
2023/04/02 04:15:06;;;;;;;13.55;8.57;;;;;;;3.88;100.00;101431.59;5063613;28;20095;-60
2023/04/02 04:17:50;;;;;;;11.63;8.18;;;;;;;3.87;100.00;101449.84;5060124;28;20082;-59
2023/04/02 04:20:22;;;;;;;11.98;7.70;;;;;;;3.83;100.00;101449.13;5061608;28;20086;-59
2023/04/02 04:22:54;;;;;;;13.30;8.13;;;;;;;3.83;100.00;101459.53;5055389;28;20119;-59
2023/04/02 04:25:28;;;;;;;13.00;7.53;;;;;;;3.81;100.00;101466.50;5055649;28;20119;-59
2023/04/02 04:28:06;;;;;;;12.32;6.85;;;;;;;3.85;100.00;101472.50;5058770;28;20044;-60
2023/04/02 04:30:44;;;;;;;13.68;6.82;;;;;;;3.80;100.00;101483.00;5056961;28;20713;-59
2023/04/02 04:33:21;;;;;;;11.70;6.65;;;;;;;3.80;100.00;101483.00;5061339;28;22203;-60
2023/04/02 04:35:54;;;;;;;9.27;5.82;;;;;;;3.73;100.00;101502.28;5060135;28;20119;-59
2023/04/02 04:38:31;;;;;;;12.38;6.63;;;;;;;3.67;100.00;101505.06;5061003;28;20123;-59
2023/04/02 04:41:05;;;;;;;12.98;6.40;;;;;;;3.63;100.00;101504.28;5063856;28;20044;-59
2023/04/02 04:43:42;;;;;;;10.90;6.35;;;;;;;3.68;100.00;101506.75;5061682;28;20057;-59
2023/04/02 04:46:14;;;;;;;10.40;5.85;;;;;;;3.52;100.00;101519.31;5062907;28;20479;-59
2023/04/02 04:48:52;;;;;;;12.00;5.93;;;;;;;3.51;100.00;101517.59;5064436;28;21433;-59
2023/04/02 04:51:24;;;;;;;11.63;5.70;;;;;;;3.52;100.00;101527.09;5061726;28;20048;-60
2023/04/02 04:53:55;;;;;;;10.57;4.78;;;;;;;3.52;100.00;101537.50;5063920;28;20518;-59
2023/04/02 04:56:26;;;;;;;9.73;5.07;;;;;;;3.42;100.00;101549.84;5060506;28;20053;-59
2023/04/02 04:59:01;;;;;;;18.38;5.93;;;;;;;3.39;100.00;101552.53;5063208;28;20098;-59
2023/04/02 05:01:36;;;;;;;8.77;4.28;;;;;;;3.39;100.00;101552.53;5068174;28;20053;-59
2023/04/02 05:04:15;;;;;;;7.80;3.88;;;;;;;3.36;100.00;101563.88;5058230;28;20049;-59
2023/04/02 05:06:51;;;;;;;8.60;4.18;;;;;;;3.30;100.00;101576.16;5055358;28;20037;-60
2023/04/02 05:09:24;;;;;;;8.70;4.68;;;;;;;3.18;100.00;101583.34;5060434;28;20044;-60
2023/04/02 05:11:55;;;;;;;9.45;5.40;;;;;;;3.16;100.00;101579.94;5059163;28;20037;-60
2023/04/02 05:14:31;;;;;;;8.30;4.50;;;;;;;3.17;100.00;101593.78;5058115;28;20044;-60
2023/04/02 05:17:05;;;;;;;8.98;4.38;;;;;;;3.15;100.00;101600.75;5059697;28;20049;-59
2023/04/02 05:19:43;;;;;;;7.80;3.92;;;;;;;3.09;100.00;101604.34;5055053;28;20565;-59
2023/04/02 05:22:22;;;;;;;7.35;3.40;;;;;;;3.10;100.00;101619.06;5061859;28;20050;-59
2023/04/02 05:24:59;;;;;;;7.43;3.22;;;;;;;3.07;100.00;101623.44;5057653;28;20044;-59
2023/04/02 05:27:36;;;;;;;8.13;3.35;;;;;;;3.05;100.00;101631.28;5059842;28;20392;-60
2023/04/02 05:30:13;;;;;;;7.93;3.88;;;;;;;3.08;100.00;101635.56;5061801;28;20052;-59
2023/04/02 05:32:45;;;;;;;8.07;3.40;;;;;;;3.01;100.00;101632.25;5056729;28;20101;-59
2023/04/02 05:35:19;;;;;;;6.13;2.97;;;;;;;3.01;100.00;101640.91;5059465;28;20040;-59
2023/04/02 05:37:50;;;;;;;7.80;3.20;;;;;;;2.95;100.00;101634.97;5053178;28;20114;-59
2023/04/02 05:40:26;;;;;;;10.45;3.35;;;;;;;2.94;100.00;101647.09;5056311;28;20055;-60
2023/04/02 05:42:55;;;;;;;8.63;3.53;;;;;;;2.87;100.00;101650.72;5062258;28;20067;-60
2023/04/02 05:45:30;;;;;;;7.75;3.00;;;;;;;2.87;100.00;101655.91;5060273;28;20129;-59
2023/04/02 05:48:02;;;;;;;8.77;3.38;;;;;;;2.82;100.00;101666.41;5060457;28;20051;-60
2023/04/02 05:50:36;;;;;;;7.07;2.88;;;;;;;2.84;100.00;101674.16;5058802;28;20052;-59
2023/04/02 05:53:12;;;;;;;6.55;2.75;;;;;;;2.83;100.00;101682.84;5056446;28;20164;-60
2023/04/02 05:55:49;;;;;;;9.20;3.00;;;;;;;2.79;100.00;101691.59;5050877;28;20493;-59
2023/04/02 05:58:24;;;;;;;8.77;2.72;;;;;;;2.82;100.00;101691.53;5058336;28;20071;-59
2023/04/02 06:01:06;;;;;;;7.05;2.70;;;;;;;2.76;100.00;101694.25;5055923;28;20083;-59
2023/04/02 06:03:45;;;;;;;9.20;2.67;;;;;;;2.70;100.00;101701.25;5058577;28;20047;-60
2023/04/02 06:06:25;;;;;;;8.17;2.47;;;;;;;2.69;100.00;101701.31;5061613;28;20044;-60
2023/04/02 06:08:58;;;;;;;7.20;2.60;;;;;;;2.71;100.00;101707.31;5060536;28;20051;-61
2023/04/02 06:11:31;;;;;;;5.63;2.30;;;;;;;2.69;100.00;101703.91;5061150;28;20062;-61
2023/04/02 06:13:59;;;;;;;4.10;2.05;;;;;;;2.64;100.00;101713.50;5068056;28;20442;-61
2023/04/02 06:16:30;;;;;;;6.20;2.88;;;;;;;2.66;100.00;101723.00;5073521;28;20043;-62
2023/04/02 06:18:58;;;;;;;5.53;2.28;;;;;;;2.62;100.00;101733.44;5066935;28;20115;-61
2023/04/02 06:21:28;;;;;;;6.07;2.30;;;;;;;2.65;100.00;101733.41;5062099;28;20542;-61
2023/04/02 06:24:02;;;;;;;5.95;2.50;;;;;;;2.59;100.00;101747.38;5066216;28;20499;-61
2023/04/02 06:26:33;;;;;;;5.28;2.33;;;;;;;2.51;100.00;101752.69;5057009;28;20052;-61
2023/04/02 06:29:06;;;;;;;5.70;2.35;;;;;;;2.47;100.00;101753.63;5059048;28;20052;-59
2023/04/02 06:31:38;;;;;;;5.43;1.83;;;;;;;2.52;100.00;101757.00;5067787;28;20055;-61
2023/04/02 06:34:15;;;;;;;5.22;2.00;;;;;;;2.56;100.00;101764.72;5072198;28;20049;-61
2023/04/02 06:36:45;;;;;;;5.78;2.30;;;;;;;2.49;100.00;101771.75;5071881;28;20491;-62
2023/04/02 06:39:18;;;;;;;6.00;2.28;;;;;;;2.50;100.00;101776.94;5062152;28;20407;-62
2023/04/02 06:41:47;;;;;;;4.18;2.03;;;;;;;2.46;100.00;101787.41;5070130;28;20040;-61
2023/04/02 06:44:18;;;;;;;7.18;2.47;;;;;;;2.48;100.00;101789.09;5067024;28;20064;-61
2023/04/02 06:46:49;;;;;;;8.85;2.17;;;;;;;2.50;100.00;101805.50;5067994;28;20056;-61
2023/04/02 06:49:23;;;;;;;4.68;2.10;;;;;;;2.45;100.00;101799.50;5071158;28;20052;-61
2023/04/02 06:51:55;;;;;;;7.45;2.03;;;;;;;2.49;100.00;101808.97;5070979;28;20086;-61
2023/04/02 06:54:23;;;;;;;5.75;2.38;;;;;;;2.56;100.00;101809.72;5066506;28;20523;-62
2023/04/02 06:56:55;;;;;;;6.97;2.25;;;;;;;2.53;100.00;101821.03;5070946;28;20127;-62
2023/04/02 06:59:23;;;;;;;6.05;1.95;;;;;;;2.56;100.00;101822.72;5070885;28;20056;-61
2023/04/02 07:01:55;;;;;;;6.47;2.00;;;;;;;2.57;100.00;101834.81;5062843;28;20053;-62
2023/04/02 07:04:26;;;;;;;6.85;2.22;;;;;;;2.62;100.00;101834.75;5050822;28;20049;-61
2023/04/02 07:06:56;;;;;;;5.68;1.92;;;;;;;2.56;100.00;101846.09;5050796;28;20044;-61
2023/04/02 07:09:24;;;;;;;8.93;2.15;;;;;;;2.63;100.00;101854.66;5051103;28;20049;-62
2023/04/02 07:11:52;;;;;;;9.32;2.20;;;;;;;2.65;100.00;101850.31;5069314;28;20557;-61
2023/04/02 07:14:20;;;;;;;8.30;2.75;;;;;;;2.74;100.00;101859.66;5073337;28;20079;-61
2023/04/02 07:16:49;;;;;;;8.52;2.13;;;;;;;2.68;100.00;101860.63;5061790;28;20068;-61
2023/04/02 07:19:20;;;;;;;7.38;2.35;;;;;;;2.69;100.00;101863.19;5060940;28;20048;-61
2023/04/02 07:21:48;;;;;;;5.18;1.92;;;;;;;2.67;100.00;101875.38;5070058;28;20076;-61
2023/04/02 07:24:17;;;;;;;6.47;2.08;;;;;;;2.69;100.00;101878.78;5072917;28;20048;-61
2023/04/02 07:26:46;;;;;;;6.93;2.40;;;;;;;2.67;100.00;101885.75;5069349;28;20396;-61
2023/04/02 07:29:16;;;;;;;5.95;2.20;;;;;;;2.77;100.00;101889.06;5070196;28;20406;-61
2023/04/02 07:31:44;;;;;;;5.45;1.80;;;;;;;2.83;100.00;101891.56;5071821;28;20380;-62
2023/04/02 07:34:12;;;;;;;5.70;2.13;;;;;;;2.91;100.00;101893.19;5071241;28;20040;-62
2023/04/02 07:36:41;;;;;;;4.97;1.98;;;;;;;2.77;100.00;101902.06;5057471;28;20049;-61
2023/04/02 07:39:12;;;;;;;7.15;2.08;;;;;;;2.80;100.00;101916.75;5074009;28;20051;-62
2023/04/02 07:41:53;;;;;;;3.75;1.70;;;;;;;2.77;100.00;101906.38;5074023;28;20079;-61
2023/04/02 07:44:21;;;;;;;8.63;2.30;;;;;;;2.78;100.00;101918.50;5073759;28;20048;-62
2023/04/02 07:46:49;;;;;;;6.43;1.98;;;;;;;2.81;100.00;101932.31;5070520;28;20045;-63
2023/04/02 07:49:18;;;;;;;5.10;2.05;;;;;;;2.81;100.00;101921.91;5070020;28;20151;-62
2023/04/02 07:51:46;;;;;;;9.93;2.67;;;;;;;2.88;100.00;101918.34;5073928;28;20368;-61
2023/04/02 07:54:14;;;;;;;7.18;2.28;;;;;;;2.92;100.00;101920.88;5056152;28;20041;-61
2023/04/02 07:56:45;;;;;;;5.53;2.30;;;;;;;2.91;100.00;101924.38;5051434;28;20049;-62
2023/04/02 07:59:14;;;;;;;7.25;2.20;;;;;;;3.00;100.00;101919.88;5049782;28;20099;-61
2023/04/02 08:01:42;;;;;;;6.88;2.95;;;;;;;3.01;100.00;101937.22;5049042;28;20079;-62
2023/04/02 08:04:18;;;;;;;5.78;2.95;;;;;;;3.13;100.00;101928.31;5054609;28;20036;-62
2023/04/02 08:06:47;;;;;;;9.13;2.80;;;;;;;3.10;100.00;101949.19;5065740;28;20364;-61
2023/04/02 08:09:15;;;;;;;7.05;2.13;;;;;;;2.99;100.00;101949.34;5058567;28;20045;-62
2023/04/02 08:11:45;;;;;;;5.70;2.53;;;;;;;3.00;100.00;101950.19;5059702;28;20744;-62
2023/04/02 08:14:15;;;;;;;4.25;2.05;;;;;;;2.94;100.00;101955.50;5068772;28;20036;-62
2023/04/02 08:16:45;;;;;;;5.53;2.08;;;;;;;2.95;100.00;101959.84;5061947;28;20111;-62
2023/04/02 08:19:14;;;;;;;4.72;1.90;;;;;;;3.00;100.00;101964.06;5061614;28;20047;-61
2023/04/02 08:21:48;;;;;;;8.55;2.10;;;;;;;3.09;100.00;101970.84;5059797;28;20661;-62
2023/04/02 08:24:18;;;;;;;7.20;2.17;;;;;;;3.08;100.00;101966.56;5063621;28;20570;-62
2023/04/02 08:26:47;;;;;;;4.88;1.80;;;;;;;3.13;100.00;101969.91;5060461;28;20050;-63
2023/04/02 08:29:17;;;;;;;5.93;2.00;;;;;;;3.08;100.00;101979.56;5062013;28;20102;-62
2023/04/02 08:31:45;;;;;;;5.18;2.03;;;;;;;3.15;100.00;101986.38;5062070;28;20041;-62
2023/04/02 08:34:13;;;;;;;7.35;2.03;;;;;;;3.30;100.00;101994.78;5060903;28;20126;-61
2023/04/02 08:36:44;;;;;;;9.15;2.17;;;;;;;3.17;100.00;101999.34;5057363;28;20056;-62
2023/04/02 08:39:12;;;;;;;7.05;2.00;;;;;;;3.21;100.00;102001.84;5061408;28;20044;-62
2023/04/02 08:41:45;;;;;;;7.05;2.10;;;;;;;3.19;100.00;102006.22;5062391;28;20055;-61
2023/04/02 08:44:39;;;;;;;5.65;2.17;;;;;;;3.38;100.00;102003.31;5059345;28;20053;-62
2023/04/02 08:47:09;;;;;;;6.57;2.40;;;;;;;3.42;100.00;102017.16;5068491;28;20090;-62
2023/04/02 08:49:42;;;;;;;8.52;2.47;;;;;;;3.55;100.00;102021.25;5067902;28;20036;-61
2023/04/02 08:52:20;;;;;;;8.90;3.15;;;;;;;3.58;100.00;102030.75;5056070;28;20075;-62
2023/04/02 08:54:50;;;;;;;5.28;2.25;;;;;;;3.54;100.00;102032.53;5065643;28;20057;-62
2023/04/02 08:57:27;;;;;;;5.72;2.35;;;;;;;3.69;100.00;102036.63;5070377;28;20128;-62
2023/04/02 09:00:01;;;;;;;4.88;2.67;;;;;;;3.69;100.00;102049.63;5068572;28;20503;-62
2023/04/02 09:02:37;;;;;;;5.35;2.50;;;;;;;3.65;100.00;102058.38;5060133;28;20090;-63
2023/04/02 09:05:15;;;;;;;8.25;3.00;;;;;;;3.77;100.00;102055.56;5071088;28;20557;-61
2023/04/02 09:07:43;;;;;;;6.45;2.70;;;;;;;3.95;100.00;102063.94;5072180;28;20186;-63
2023/04/02 09:10:15;;;;;;;7.63;2.97;;;;;;;3.99;100.00;102073.41;5072319;28;20102;-63
2023/04/02 09:12:46;;;;;;;6.70;2.72;;;;;;;4.02;100.00;102073.34;5069134;28;20048;-59
2023/04/02 09:15:28;;;;;;;5.95;2.40;;;;;;;4.06;100.00;102080.22;5068563;28;20041;-59
2023/04/02 09:17:59;;;;;;;8.07;2.70;;;;;;;4.17;100.00;102077.41;5066954;28;20048;-59
2023/04/02 09:20:28;;;;;;;6.20;2.55;;;;;;;4.19;100.00;102079.13;5056341;28;20052;-59
2023/04/02 09:22:57;;;;;;;6.95;2.88;;;;;;;4.09;100.00;102092.31;5058083;28;20056;-59
2023/04/02 09:25:28;;;;;;;4.28;2.00;;;;;;;4.11;100.00;102091.41;5062637;28;20052;-58
2023/04/02 09:28:00;;;;;;;7.22;2.33;;;;;;;4.22;100.00;102092.06;5060142;28;20403;-59
2023/04/02 09:30:47;;;;;;;3.72;1.75;;;;;;;4.28;100.00;102098.06;5059340;28;20114;-59
2023/04/02 09:33:18;;;;;;;6.05;2.13;;;;;;;4.32;100.00;102098.00;5056192;28;20048;-59
2023/04/02 09:35:55;;;;;;;7.57;1.90;;;;;;;4.44;100.00;102101.25;5061254;28;20072;-59
2023/04/02 09:38:27;;;;;;;5.72;2.28;;;;;;;4.56;100.00;102104.44;5061872;28;20037;-59
2023/04/02 09:41:00;;;;;;;6.00;2.10;;;;;;;4.57;100.00;102103.56;5059569;28;20510;-59
2023/04/02 09:43:30;;;;;;;6.50;2.05;;;;;;;4.64;100.00;102106.91;5056817;28;20074;-58
2023/04/02 09:46:01;;;;;;;6.88;2.50;;;;;;;4.71;100.00;102108.50;5055496;28;20404;-59
2023/04/02 09:48:34;;;;;;;5.68;2.15;;;;;;;4.78;100.00;102127.47;5062399;28;20483;-58
2023/04/02 09:51:07;;;;;;;5.93;2.17;;;;;;;4.65;100.00;102119.06;5062455;28;20045;-58
2023/04/02 09:53:37;;;;;;;5.63;2.40;;;;;;;4.71;100.00;102125.88;5062788;28;20127;-61
2023/04/02 09:56:14;;;;;;;5.00;2.40;;;;;;;4.76;100.00;102136.22;5063438;28;20044;-61
2023/04/02 09:58:44;;;;;;;5.53;2.67;;;;;;;4.86;100.00;102141.22;5062126;28;20098;-62
2023/04/02 10:01:29;;;;;;;5.40;2.33;;;;;;;4.92;100.00;102145.44;5059293;28;20060;-61
2023/04/02 10:03:58;;;;;;;6.20;2.42;;;;;;;4.97;100.00;102159.25;5064327;28;20049;-61
2023/04/02 10:06:29;;;;;;;5.10;1.80;;;;;;;4.92;100.00;102161.06;5061972;28;20041;-61
2023/04/02 10:08:58;;;;;;;7.68;2.08;;;;;;;4.88;100.00;102165.50;5060101;28;20577;-61
2023/04/02 10:11:33;;;;;;;6.72;1.77;;;;;;;5.04;100.00;102165.19;5060280;28;20040;-62
2023/04/02 10:14:19;;;;;;;7.88;1.83;;;;;;;4.99;100.00;102169.63;5058800;28;20415;-62
2023/04/02 10:16:51;;;;;;;5.60;1.90;;;;;;;4.97;100.00;102181.84;5063441;28;20044;-62
2023/04/02 10:19:28;;;;;;;4.28;1.80;;;;;;;5.00;100.00;102184.41;5063038;28;20043;-61
2023/04/02 10:21:59;;;;;;;4.95;1.90;;;;;;;5.01;100.00;102181.75;5060899;28;20462;-62
2023/04/02 10:24:28;;;;;;;4.13;1.80;;;;;;;4.99;100.00;102187.88;5071212;28;20493;-58
2023/04/02 10:27:08;;;;;;;5.63;1.67;;;;;;;4.84;100.00;102192.53;5062314;28;20051;-58
2023/04/02 10:29:57;;;;;;;4.28;1.88;;;;;;;4.84;100.00;102194.25;5071412;28;20044;-59
2023/04/02 10:32:32;;;;;;;6.03;1.90;;;;;;;5.20;100.00;102191.81;5072034;28;20040;-58
2023/04/02 10:35:03;;;;;;;8.30;2.20;;;;;;;5.34;100.00;102199.34;5075072;28;20091;-58
2023/04/02 10:37:54;;;;;;;7.95;1.90;;;;;;;5.79;100.00;102201.81;5073218;28;20048;-58
2023/04/02 10:40:28;;;;;;;7.20;1.83;;;;;;;5.93;100.00;102198.88;5068619;28;20105;-58
2023/04/02 10:43:22;;;;;;;6.43;1.60;;;;;;;6.19;100.00;102203.50;5064850;28;20095;-58
2023/04/02 10:45:56;;;;;;;6.78;2.20;;;;;;;6.58;100.00;102208.56;5060980;28;20499;-58
2023/04/02 10:48:32;;;;;;;6.35;2.22;;;;;;;6.73;100.00;102199.47;5074794;28;20116;-58
2023/04/02 10:51:06;;;;;;;5.40;1.70;;;;;;;7.04;100.00;102205.63;5071278;28;20045;-58
2023/04/02 10:53:43;;;;;;;6.38;2.10;;;;;;;7.45;100.00;102208.75;5072180;28;20052;-59
2023/04/02 10:56:14;;;;;;;3.63;1.52;;;;;;;7.71;100.00;102207.97;5069293;28;20056;-59
2023/04/02 10:58:53;;;;;;;8.02;1.65;;;;;;;7.87;100.00;102210.13;5071031;28;20467;-59
2023/04/02 11:01:28;;;;;;;4.25;1.85;;;;;;;8.18;100.00;102207.34;5055869;28;20049;-59
2023/04/02 11:04:01;;;;;;;4.15;1.40;;;;;;;8.40;100.00;102211.88;5065873;28;20369;-59
2023/04/02 11:06:32;;;;;;;5.47;1.80;;;;;;;8.57;100.00;102206.91;5070353;28;20052;-59
2023/04/02 11:09:04;;;;;;;6.78;1.90;;;;;;;8.87;100.00;102217.22;5071017;28;20538;-60
2023/04/02 11:11:38;;;;;;;4.70;1.73;;;;;;;9.11;100.00;102212.00;5058507;28;20527;-59
2023/04/02 11:14:13;;;;;;;6.10;1.80;;;;;;;9.40;100.00;102218.75;5057748;28;20106;-59
2023/04/02 11:16:42;;;;;;;5.43;1.88;;;;;;;9.43;100.00;102216.00;5059029;28;20067;-59
2023/04/02 11:19:26;;;;;;;5.22;1.80;;;;;;;9.59;97.31;102216.28;5054305;28;20037;-59
2023/04/02 11:21:58;;;;;;;9.80;1.75;;;;;;;9.47;96.28;102222.00;5050302;28;20499;-59
2023/04/02 11:24:48;;;;;;;5.80;1.50;;;;;;;9.61;100.00;102217.09;5056651;28;20045;-58
2023/04/02 11:27:23;;;;;;;4.40;1.58;;;;;;;10.29;100.00;102208.22;5057909;28;20066;-58
2023/04/02 11:29:55;;;;;;;6.38;1.80;;;;;;;10.54;97.36;102217.72;5055777;28;20045;-61
2023/04/02 11:32:34;;;;;;;7.78;2.30;;;;;;;10.59;93.45;102216.63;5056488;28;20041;-61
2023/04/02 11:35:25;;;;;;;4.50;1.50;;;;;;;10.68;87.73;102218.00;5057247;28;20064;-61
2023/04/02 11:37:55;;;;;;;9.98;1.98;;;;;;;10.35;85.48;102231.66;5050366;28;20037;-60
2023/04/02 11:40:51;;;;;;;4.57;1.50;;;;;;;10.71;91.11;102233.63;5053040;28;20049;-60
2023/04/02 11:43:51;;;;;;;5.32;1.92;;;;;;;10.96;79.65;102233.41;5030595;28;20055;-60
2023/04/02 11:46:45;;;;;;;5.47;1.80;;;;;;;11.17;84.84;102233.38;5066493;28;20048;-59
2023/04/02 11:49:39;;;;;;;4.28;1.63;;;;;;;11.08;82.82;102232.00;5053835;28;20397;-59
2023/04/02 11:52:23;;;;;;;6.30;1.83;;;;;;;11.54;81.48;102249.25;5067273;28;20119;-60